Terminal Aerodrome Forecast
Issued by NWS Tallahassee, FL

Home | Current Version | Previous Version | Text Only | Print | Product List | Glossary On
Versions: 1 2 3 4 5 6 7 8 9 10 11 12 13 14 15
000
FTUS42 KTAE 182300
TAFTLH
TAF
KTLH 182320Z 1900/1924 04008KT 5SM -SHRA BR OVC007
      TEMPO 1901/1902 VRB15G20KT
     FM190400 36011KT 6SM BR OVC004
     FM191400 34011G16KT P6SM BKN015=

USA.gov is the U.S. government's official web portal to all federal, state and local government web resources and services.